EFKK/KOK METAR and TAF weather

Enter ICAO airport designator
Station Type Date Time Source
EFKK METAR 2022/12/10 02:20 UTC NOAA

EFKK 100220Z AUTO 04005KT 9999 OVC012 M06/M08 Q1012


Station Type Date Time Source
EFKK Decoded METAR 2022/12/10 02:20 UTC NOAA

Kruunupyy, Finland (EFKK) 63-43N 023-09E
Dec 09, 2022 - 09:20 PM EST / 2022.12.10 0220 UTC
Wind: from the NE (040 degrees) at 6 MPH (5 KT):0
Visibility: greater than 7 mile(s):0
Sky conditions: overcast
Temperature: 21 F (-6 C)
Windchill: 14 F (-10 C):1
Dew Point: 17 F (-8 C)
Relative Humidity: 85%
Pressure (altimeter): 29.88 in. Hg (1012 hPa)
ob: EFKK 100220Z AUTO 04005KT 9999 OVC012 M06/M08 Q1012
cycle: 2

Station Type Date Time Source
EFKK TAF 2019/04/22 21:42 UTC NOAA

TAF EFKK 222023Z 2221/2321 18006KT CAVOK

Example: see airport list